Time;durP1;ratioP1;P1;durP2;ratioP2;P2;SDS_P1;SDS_P2;PMS_P1;PMS_P2;Temp;Humidity;BMP_temperature;BMP_pressure;BME280_temperature;BME280_humidity;BME280_pressure;Samples;Min_cycle;Max_cycle;Signal;HPM_P1;HPM_P2
2021/12/10 00:00:06;;;;;;;19.50;2.50;;;;;;;17.83;66.66;101496.19;5068198;28;20037;-68
2021/12/10 00:02:35;;;;;;;3.95;1.35;;;;;;;17.80;66.61;101479.28;5068103;28;20041;-68
2021/12/10 00:05:05;;;;;;;12.85;1.70;;;;;;;17.82;66.63;101482.84;5064811;28;20086;-67
2021/12/10 00:07:33;;;;;;;10.30;1.48;;;;;;;17.83;66.63;101472.16;5070538;28;20048;-68
2021/12/10 00:10:09;;;;;;;19.40;2.38;;;;;;;17.87;66.46;101481.03;5071029;28;20102;-68
2021/12/10 00:12:40;;;;;;;9.43;1.73;;;;;;;17.87;66.49;101471.25;5072034;28;20092;-67
2021/12/10 00:15:09;;;;;;;13.48;1.52;;;;;;;17.85;66.62;101470.34;5071956;28;20049;-67
2021/12/10 00:17:39;;;;;;;12.48;2.10;;;;;;;17.85;66.75;101470.34;5072403;28;20040;-67
2021/12/10 00:20:09;;;;;;;14.23;2.00;;;;;;;17.83;66.84;101460.56;5071140;28;20040;-67
2021/12/10 00:22:46;;;;;;;7.65;1.65;;;;;;;17.82;67.19;101454.34;5072130;28;20051;-68
2021/12/10 00:25:18;;;;;;;15.13;1.70;;;;;;;17.83;67.27;101448.13;5059016;28;20051;-67
2021/12/10 00:27:46;;;;;;;13.75;2.15;;;;;;;17.83;67.41;101449.91;5070407;28;20059;-67
2021/12/10 00:30:19;;;;;;;12.63;1.45;;;;;;;17.82;67.96;101446.34;5071934;28;20048;-67
2021/12/10 00:32:58;;;;;;;10.65;1.30;;;;;;;17.83;68.46;101450.78;5071356;28;20048;-67
2021/12/10 00:35:29;;;;;;;8.60;2.22;;;;;;;17.81;68.71;101452.56;5070135;28;20045;-68
2021/12/10 00:37:57;;;;;;;15.93;1.83;;;;;;;17.79;68.98;101437.41;5072409;28;20548;-67
2021/12/10 00:40:27;;;;;;;9.18;1.60;;;;;;;17.83;68.79;101448.13;5070839;28;20048;-67
2021/12/10 00:42:56;;;;;;;14.18;1.75;;;;;;;17.86;68.64;101444.53;5062517;28;20152;-67
2021/12/10 00:45:26;;;;;;;7.53;1.05;;;;;;;17.82;68.68;101438.31;5071545;28;20048;-67
2021/12/10 00:47:56;;;;;;;23.45;3.55;;;;;;;17.83;68.84;101433.88;5069981;28;20626;-67
2021/12/10 00:50:27;;;;;;;10.48;1.52;;;;;;;17.81;68.74;101433.88;5090599;28;20117;-67
2021/12/10 00:52:55;;;;;;;9.63;1.70;;;;;;;17.80;68.42;101418.72;5071522;28;20063;-67
2021/12/10 00:55:25;;;;;;;10.63;1.45;;;;;;;17.80;68.34;101433.88;5071036;28;20098;-67
2021/12/10 00:57:53;;;;;;;16.02;1.77;;;;;;;17.75;68.64;101424.97;5071055;28;20443;-67
2021/12/10 01:00:23;;;;;;;9.25;1.40;;;;;;;17.72;68.81;101425.00;5069199;28;20508;-67
2021/12/10 01:02:51;;;;;;;15.95;1.77;;;;;;;17.70;68.84;101430.34;5070824;28;20115;-67
2021/12/10 01:05:23;;;;;;;10.32;1.70;;;;;;;17.70;68.82;101422.34;5070213;28;20064;-67
2021/12/10 01:07:51;;;;;;;6.95;1.30;;;;;;;17.69;68.80;101431.25;5071546;28;20430;-67
2021/12/10 01:10:27;;;;;;;7.32;1.02;;;;;;;17.72;68.71;101436.56;5070710;28;20044;-67
2021/12/10 01:12:57;;;;;;;20.23;2.13;;;;;;;17.76;68.69;101440.13;5087032;28;20579;-67
2021/12/10 01:24:14;;;;;;;10.77;1.98;;;;;;;17.83;68.28;101431.19;5071549;28;20494;-68
2021/12/10 01:26:58;;;;;;;12.13;1.80;;;;;;;17.90;67.63;101414.25;5082165;28;20435;-67
2021/12/10 01:29:31;;;;;;;14.30;2.63;;;;;;;17.94;67.26;101421.34;5086988;28;20071;-68
2021/12/10 01:32:00;;;;;;;14.02;1.88;;;;;;;17.91;67.43;101408.91;5090875;28;20036;-68
2021/12/10 01:34:28;;;;;;;13.32;2.10;;;;;;;17.91;67.60;101418.72;5091503;28;20519;-67
2021/12/10 01:36:57;;;;;;;8.38;1.38;;;;;;;17.91;68.03;101405.34;5091361;28;20151;-69
2021/12/10 01:39:28;;;;;;;9.82;1.48;;;;;;;17.89;68.55;101416.03;5091009;28;20438;-67
2021/12/10 01:42:02;;;;;;;16.65;3.47;;;;;;;17.88;68.90;101416.03;5089972;28;20048;-68
2021/12/10 01:44:36;;;;;;;11.68;1.98;;;;;;;17.88;69.38;101416.03;5090537;28;20042;-67
2021/12/10 01:47:08;;;;;;;11.52;2.30;;;;;;;17.96;68.78;101406.22;5105463;28;20507;-67
2021/12/10 01:49:37;;;;;;;17.52;1.77;;;;;;;17.99;70.43;101408.84;5101097;28;20037;-67
2021/12/10 01:52:08;;;;;;;9.70;1.45;;;;;;;17.88;72.12;101416.03;5069651;28;20044;-67
2021/12/10 01:54:43;;;;;;;12.93;1.88;;;;;;;17.78;72.51;101414.31;5084499;28;20075;-68
2021/12/10 01:57:13;;;;;;;16.50;2.53;;;;;;;17.66;72.84;101425.00;5085274;28;20124;-67
2021/12/10 01:59:43;;;;;;;10.70;1.80;;;;;;;17.52;73.92;101430.38;5081511;28;20059;-67
2021/12/10 02:02:14;;;;;;;8.88;1.75;;;;;;;17.46;74.60;101396.53;5087156;28;20127;-67
2021/12/10 02:04:44;;;;;;;9.10;1.40;;;;;;;17.41;74.95;101406.34;5071869;28;20052;-67
2021/12/10 02:07:16;;;;;;;14.43;1.77;;;;;;;17.37;74.90;101417.94;5082686;28;20411;-67
2021/12/10 02:09:44;;;;;;;15.63;1.42;;;;;;;17.28;75.38;101403.69;5070382;28;20064;-67
2021/12/10 02:12:12;;;;;;;12.93;1.50;;;;;;;17.22;75.47;101393.94;5074905;28;20090;-68
2021/12/10 02:14:40;;;;;;;14.40;1.80;;;;;;;17.13;76.10;101399.28;5079976;28;20051;-67
2021/12/10 02:17:08;;;;;;;20.63;2.25;;;;;;;17.05;76.64;101406.41;5088715;28;20044;-67
2021/12/10 02:19:38;;;;;;;4.82;0.95;;;;;;;16.96;77.07;101409.06;5080951;28;20050;-67
2021/12/10 02:22:08;;;;;;;8.00;1.20;;;;;;;16.81;77.42;101403.72;5089743;28;20036;-67
2021/12/10 02:24:36;;;;;;;9.68;1.08;;;;;;;16.52;78.90;101396.56;5104655;28;20537;-67
2021/12/10 02:27:08;;;;;;;12.60;1.30;;;;;;;16.33;79.88;101398.31;5070887;28;20098;-69
2021/12/10 02:29:37;;;;;;;3.47;0.65;;;;;;;16.21;80.90;101394.75;5074929;28;20051;-68
2021/12/10 02:32:09;;;;;;;13.95;1.67;;;;;;;16.12;81.95;101384.94;5085507;28;20480;-68
2021/12/10 02:34:38;;;;;;;5.55;0.95;;;;;;;16.07;82.75;101391.13;5090112;28;20044;-68
2021/12/10 02:37:07;;;;;;;9.30;1.30;;;;;;;16.05;83.13;101403.56;5082817;28;20127;-68
2021/12/10 02:39:35;;;;;;;10.48;1.33;;;;;;;15.99;83.55;101403.53;5079627;28;20434;-68
2021/12/10 02:42:03;;;;;;;4.63;1.33;;;;;;;15.98;83.72;101405.31;5070873;28;20036;-67
2021/12/10 02:44:33;;;;;;;9.63;1.27;;;;;;;16.00;83.87;101405.31;5102092;28;20043;-68
2021/12/10 02:47:01;;;;;;;10.13;2.10;;;;;;;16.01;83.92;101402.66;5077934;28;20049;-69
2021/12/10 02:49:30;;;;;;;12.48;2.92;;;;;;;15.99;84.39;101395.53;5080638;28;20078;-71
2021/12/10 02:51:58;;;;;;;5.22;0.68;;;;;;;15.94;84.74;101396.44;5089862;28;20638;-71
2021/12/10 02:54:34;;;;;;;19.48;2.05;;;;;;;15.90;85.11;101399.94;5079761;28;20048;-70
2021/12/10 02:57:05;;;;;;;18.33;2.08;;;;;;;15.87;85.50;101407.94;5085969;28;20051;-70
2021/12/10 02:59:32;;;;;;;15.63;2.25;;;;;;;15.89;85.58;101410.56;5089132;28;20051;-70
2021/12/10 03:02:00;;;;;;;26.48;2.55;;;;;;;15.92;85.71;101413.25;5089527;28;20487;-69
2021/12/10 03:04:29;;;;;;;19.35;2.05;;;;;;;15.94;85.65;101411.50;5087599;28;20040;-69
2021/12/10 03:07:00;;;;;;;18.63;1.80;;;;;;;15.91;85.75;101404.38;5077896;28;20040;-70
2021/12/10 03:09:30;;;;;;;21.55;2.97;;;;;;;15.90;86.09;101423.91;5075540;28;20477;-69
2021/12/10 03:12:00;;;;;;;28.70;3.08;;;;;;;15.89;86.16;101411.47;5069599;28;20047;-69
2021/12/10 03:14:32;;;;;;;19.65;2.67;;;;;;;15.91;86.29;101422.13;5100483;28;20040;-69
2021/12/10 03:17:02;;;;;;;15.65;2.13;;;;;;;15.89;86.34;101421.22;5081172;28;20040;-68
2021/12/10 03:19:30;;;;;;;18.95;2.28;;;;;;;15.86;86.39;101419.47;5104585;28;20118;-68
2021/12/10 03:21:59;;;;;;;21.38;2.42;;;;;;;15.83;86.37;101408.78;5078590;28;20450;-68
2021/12/10 03:24:30;;;;;;;18.33;2.83;;;;;;;15.84;86.41;101407.91;5078889;28;20544;-69
2021/12/10 03:27:02;;;;;;;17.23;2.05;;;;;;;15.84;86.21;101405.25;5087642;28;20408;-68
2021/12/10 03:29:32;;;;;;;17.25;2.33;;;;;;;15.82;86.27;101401.66;5077319;28;20088;-68
2021/12/10 03:32:02;;;;;;;18.83;1.52;;;;;;;15.80;86.00;101392.81;5072784;28;20549;-68
2021/12/10 03:34:30;;;;;;;18.75;2.05;;;;;;;15.74;85.78;101399.88;5069281;28;20071;-68
2021/12/10 03:36:59;;;;;;;18.25;3.65;;;;;;;15.71;85.72;101398.09;5067505;28;20102;-68
2021/12/10 03:39:28;;;;;;;19.92;2.47;;;;;;;15.70;85.65;101401.63;5060836;28;20036;-67
2021/12/10 03:41:59;;;;;;;19.42;3.28;;;;;;;15.68;85.52;101391.88;5093130;28;20040;-67
2021/12/10 03:44:27;;;;;;;12.88;2.00;;;;;;;15.65;85.51;101391.84;5070139;28;20044;-67
2021/12/10 03:46:55;;;;;;;9.02;1.17;;;;;;;15.65;85.58;101397.16;5067923;28;20127;-67
2021/12/10 03:49:23;;;;;;;20.40;3.15;;;;;;;15.62;85.44;101403.34;5088828;28;20051;-67
2021/12/10 03:51:51;;;;;;;15.27;2.20;;;;;;;15.63;85.51;101404.25;5087478;28;20112;-67
2021/12/10 03:54:19;;;;;;;12.48;2.40;;;;;;;15.68;85.44;101408.72;5075371;28;20059;-66
2021/12/10 03:56:49;;;;;;;20.52;2.22;;;;;;;15.76;85.16;101412.28;5071325;28;20086;-67
2021/12/10 03:59:20;;;;;;;22.45;1.75;;;;;;;15.79;84.94;101408.78;5082966;28;20048;-66
2021/12/10 04:01:52;;;;;;;18.42;2.22;;;;;;;15.78;84.86;101410.53;5083227;28;20047;-67
2021/12/10 04:04:23;;;;;;;15.27;1.70;;;;;;;15.80;84.90;101423.88;5066949;28;20048;-67
2021/12/10 04:06:51;;;;;;;16.77;2.35;;;;;;;15.81;84.88;101410.56;5067029;28;20048;-66
2021/12/10 04:09:19;;;;;;;12.10;1.92;;;;;;;15.85;84.95;101409.69;5083942;28;20045;-66
2021/12/10 04:11:48;;;;;;;14.98;1.65;;;;;;;15.83;84.77;101416.78;5067542;28;20040;-66
2021/12/10 04:14:15;;;;;;;27.13;4.10;;;;;;;15.87;84.92;101417.69;5067580;28;20162;-66
2021/12/10 04:16:45;;;;;;;20.33;2.75;;;;;;;15.90;84.93;101415.03;5068779;28;20037;-67
2021/12/10 04:19:14;;;;;;;25.10;3.22;;;;;;;15.90;84.71;101409.69;5067764;28;20052;-66
2021/12/10 04:21:44;;;;;;;20.77;2.33;;;;;;;15.90;84.51;101409.69;5068141;28;20047;-66
2021/12/10 04:24:16;;;;;;;14.88;1.95;;;;;;;15.84;84.64;101422.97;5067612;28;20102;-66
2021/12/10 04:26:45;;;;;;;16.38;2.17;;;;;;;15.79;84.74;101415.00;5083994;28;20036;-66
2021/12/10 04:29:13;;;;;;;26.02;3.53;;;;;;;15.80;84.74;101411.44;5067771;28;20061;-66
2021/12/10 04:31:42;;;;;;;21.35;3.25;;;;;;;15.80;84.60;101418.53;5083610;28;20429;-66
2021/12/10 04:34:11;;;;;;;20.50;2.75;;;;;;;15.74;84.55;101419.41;5068657;28;20048;-66
2021/12/10 04:36:39;;;;;;;20.45;3.17;;;;;;;15.68;84.45;101419.38;5068838;28;20127;-66
2021/12/10 04:39:08;;;;;;;22.90;3.45;;;;;;;15.68;84.44;101419.38;5067929;28;20679;-66
2021/12/10 04:41:36;;;;;;;30.70;8.07;;;;;;;15.70;84.39;101412.28;5067800;28;20094;-66
2021/12/10 04:44:04;;;;;;;34.22;10.82;;;;;;;15.67;84.13;101420.25;5068043;28;20051;-66
2021/12/10 04:46:32;;;;;;;19.73;4.90;;;;;;;15.62;84.23;101419.31;5068407;28;20132;-66
2021/12/10 04:49:05;;;;;;;17.13;3.00;;;;;;;15.63;84.19;101410.44;5083413;28;20045;-67
2021/12/10 04:51:38;;;;;;;18.63;3.45;;;;;;;15.62;84.04;101416.66;5068302;28;20028;-67
2021/12/10 04:54:08;;;;;;;25.65;5.00;;;;;;;15.61;84.03;101412.25;5071024;28;20075;-67
2021/12/10 04:56:36;;;;;;;18.45;3.83;;;;;;;15.54;84.04;101410.44;5087322;28;20404;-66
2021/12/10 04:59:07;;;;;;;18.10;2.33;;;;;;;15.53;84.16;101405.97;5070902;28;20504;-67
2021/12/10 05:01:36;;;;;;;20.58;2.83;;;;;;;15.58;84.20;101408.66;5086547;28;20048;-66
2021/12/10 05:04:07;;;;;;;25.42;3.95;;;;;;;15.57;84.16;101410.44;5071737;28;20041;-66
2021/12/10 05:06:37;;;;;;;20.65;3.40;;;;;;;15.57;84.02;101402.44;5070913;28;20032;-66
2021/12/10 05:09:07;;;;;;;25.67;2.78;;;;;;;15.66;84.12;101402.50;5071057;28;20063;-66
2021/12/10 05:11:36;;;;;;;6.05;1.10;;;;;;;15.68;83.63;101397.19;5069830;28;20040;-66
2021/12/10 05:14:05;;;;;;;21.55;4.00;;;;;;;15.74;83.42;101402.53;5070204;28;20487;-67
2021/12/10 05:16:33;;;;;;;22.80;4.28;;;;;;;15.81;83.66;101396.38;5086462;28;20047;-67
2021/12/10 05:19:03;;;;;;;23.00;4.47;;;;;;;15.84;83.70;101396.38;5070797;28;20073;-67
2021/12/10 05:21:33;;;;;;;23.13;5.63;;;;;;;15.89;83.39;101392.84;5071518;28;20040;-66
2021/12/10 05:24:04;;;;;;;27.20;3.15;;;;;;;15.93;82.41;101391.97;5070916;28;20098;-66
2021/12/10 05:26:33;;;;;;;24.27;3.33;;;;;;;15.95;82.50;101394.63;5069672;28;20036;-66
2021/12/10 05:29:01;;;;;;;17.23;3.45;;;;;;;15.95;82.23;101411.50;5069028;28;20044;-67
2021/12/10 05:31:29;;;;;;;28.67;4.15;;;;;;;15.98;81.89;101389.31;5086472;28;20487;-66
2021/12/10 05:33:57;;;;;;;21.10;3.17;;;;;;;16.00;81.54;101403.53;5070146;28;20071;-68
2021/12/10 05:36:26;;;;;;;22.33;4.20;;;;;;;16.10;81.55;101396.47;5071404;28;20047;-66
2021/12/10 05:38:54;;;;;;;22.67;3.40;;;;;;;16.21;81.83;101403.59;5069511;28;20048;-66
2021/12/10 05:41:23;;;;;;;21.95;3.47;;;;;;;16.28;81.94;101393.84;5075227;28;20134;-66
2021/12/10 05:43:51;;;;;;;26.65;5.22;;;;;;;16.32;81.40;101387.66;5084319;28;20101;-66
2021/12/10 05:46:19;;;;;;;24.00;5.75;;;;;;;16.39;81.16;101384.13;5077637;28;20042;-66
2021/12/10 05:48:47;;;;;;;19.65;6.95;;;;;;;16.44;81.24;101384.13;5074971;28;20032;-66
2021/12/10 05:51:15;;;;;;;25.20;5.90;;;;;;;16.51;80.97;101393.91;5079617;28;20120;-66
2021/12/10 05:53:43;;;;;;;21.48;5.68;;;;;;;16.54;80.17;101402.78;5071384;28;20036;-66
2021/12/10 05:56:11;;;;;;;29.23;10.15;;;;;;;16.61;80.38;101393.94;5085412;28;20036;-66
2021/12/10 05:58:40;;;;;;;17.60;7.38;;;;;;;16.64;79.83;101388.63;5085376;28;20036;-66
2021/12/10 06:01:10;;;;;;;30.33;8.98;;;;;;;16.70;79.42;101403.72;5061579;28;20036;-66
2021/12/10 06:03:48;;;;;;;28.90;7.90;;;;;;;16.73;79.10;101401.06;5068660;28;20033;-66
2021/12/10 06:06:16;;;;;;;20.23;5.93;;;;;;;16.72;79.58;101399.28;5085668;28;20048;-66
2021/12/10 06:08:44;;;;;;;30.55;14.98;;;;;;;16.74;79.62;101397.50;5069861;28;20033;-66
2021/12/10 06:11:11;;;;;;;25.10;7.80;;;;;;;16.74;80.12;101403.72;5068176;28;20044;-67
2021/12/10 06:13:41;;;;;;;16.42;5.15;;;;;;;16.82;80.52;101394.84;5070045;28;20032;-66
2021/12/10 06:16:08;;;;;;;24.52;4.35;;;;;;;16.88;80.23;101397.50;5069827;28;20045;-66
2021/12/10 06:18:36;;;;;;;16.27;3.55;;;;;;;16.96;79.95;101407.28;5051411;28;20032;-67
2021/12/10 06:21:04;;;;;;;28.50;10.18;;;;;;;17.07;80.08;101409.94;5070268;28;20127;-67
2021/12/10 06:23:32;;;;;;;41.58;19.17;;;;;;;17.19;80.82;101409.97;5052347;28;20040;-67
2021/12/10 06:26:00;;;;;;;52.45;29.58;;;;;;;17.26;81.02;101395.72;5069359;28;20689;-67
2021/12/10 06:28:27;;;;;;;31.85;22.73;;;;;;;17.25;80.38;101390.38;5068908;28;20042;-67
2021/12/10 06:30:57;;;;;;;22.60;10.55;;;;;;;17.27;79.72;101392.13;5069618;28;20115;-66
2021/12/10 06:33:27;;;;;;;46.92;22.65;;;;;;;17.37;79.18;101401.03;5067677;28;20204;-66
2021/12/10 06:35:58;;;;;;;55.60;26.75;;;;;;;17.51;79.30;101392.09;5068264;28;20570;-66
2021/12/10 06:38:26;;;;;;;46.58;24.35;;;;;;;17.58;79.20;101392.97;5069145;28;20609;-66
2021/12/10 06:40:54;;;;;;;40.50;24.75;;;;;;;17.78;79.89;101393.81;5080313;28;20185;-66
2021/12/10 06:43:22;;;;;;;46.63;25.88;;;;;;;17.95;80.10;101401.75;5078994;28;20040;-66
2021/12/10 06:45:52;;;;;;;21.63;8.75;;;;;;;18.06;77.20;101393.69;5068294;28;20618;-66
2021/12/10 06:48:24;;;;;;;12.85;2.80;;;;;;;18.21;75.46;101388.25;5069333;28;20454;-66
2021/12/10 06:50:55;;;;;;;17.67;2.42;;;;;;;18.32;74.13;101391.75;5069915;28;20041;-66
2021/12/10 06:53:25;;;;;;;25.10;4.43;;;;;;;18.53;72.27;101391.63;5069196;28;20053;-67
2021/12/10 06:55:54;;;;;;;21.73;2.72;;;;;;;18.66;71.23;101398.69;5060440;28;20055;-66
2021/12/10 06:58:23;;;;;;;18.98;4.95;;;;;;;18.70;70.75;101394.22;5077366;28;20738;-66
2021/12/10 07:00:53;;;;;;;20.13;3.53;;;;;;;18.62;69.75;101404.09;5084863;28;20044;-66
2021/12/10 07:03:24;;;;;;;28.23;3.78;;;;;;;18.70;69.69;101408.50;5089347;28;20135;-66
2021/12/10 07:05:55;;;;;;;24.70;3.83;;;;;;;18.62;68.69;101410.31;5084906;28;20064;-66
2021/12/10 07:08:26;;;;;;;16.65;2.72;;;;;;;18.61;69.50;101413.91;5069114;28;20040;-66
2021/12/10 07:10:55;;;;;;;33.85;4.00;;;;;;;18.53;70.08;101418.38;5086465;28;20094;-67
2021/12/10 07:13:22;;;;;;;14.52;2.55;;;;;;;18.59;70.23;101417.47;5080840;28;20036;-67
2021/12/10 07:15:52;;;;;;;24.73;3.40;;;;;;;18.66;69.82;101424.56;5087158;28;20078;-67
2021/12/10 07:18:22;;;;;;;23.08;3.53;;;;;;;18.63;68.50;101417.47;5086827;28;20044;-67
2021/12/10 07:20:53;;;;;;;25.52;3.33;;;;;;;18.45;68.55;101409.50;5089192;28;20119;-67
2021/12/10 07:23:22;;;;;;;24.50;3.30;;;;;;;18.31;69.54;101412.25;5089108;28;20040;-67
2021/12/10 07:25:50;;;;;;;16.70;2.22;;;;;;;18.22;70.30;101406.97;5089025;28;20048;-67
2021/12/10 07:28:18;;;;;;;25.02;4.38;;;;;;;18.13;70.36;101417.69;5092280;28;20514;-68
2021/12/10 07:30:47;;;;;;;12.02;2.53;;;;;;;18.07;69.64;101415.06;5100611;27;20040;-67
2021/12/10 07:33:16;;;;;;;20.52;3.47;;;;;;;17.97;69.35;101420.47;5089054;28;20086;-67
2021/12/10 07:35:45;;;;;;;14.20;2.45;;;;;;;17.90;69.49;101425.84;5088850;28;20782;-67
2021/12/10 07:38:15;;;;;;;18.65;1.90;;;;;;;17.86;69.01;101423.16;5088841;28;20044;-67
2021/12/10 07:40:43;;;;;;;16.23;2.40;;;;;;;17.84;68.84;101424.97;5089134;28;20036;-66
2021/12/10 07:43:11;;;;;;;12.77;2.33;;;;;;;17.76;68.95;101416.97;5082196;28;20036;-66
2021/12/10 07:45:40;;;;;;;13.55;2.22;;;;;;;17.81;68.53;101428.53;5088633;28;20135;-66
2021/12/10 07:48:11;;;;;;;21.85;3.47;;;;;;;18.12;69.08;101433.72;5089935;28;20067;-66
2021/12/10 07:50:43;;;;;;;14.50;2.50;;;;;;;18.27;67.97;101431.00;5088935;28;20036;-67
2021/12/10 07:53:11;;;;;;;11.98;1.90;;;;;;;18.24;68.34;101431.03;5089743;28;20127;-67
2021/12/10 07:55:42;;;;;;;25.30;6.72;;;;;;;18.40;68.36;101440.72;5083867;28;20629;-66
2021/12/10 07:58:10;;;;;;;35.28;16.45;;;;;;;18.79;68.84;101446.75;5077490;28;20582;-66
2021/12/10 08:00:40;;;;;;;24.05;13.63;;;;;;;19.07;67.79;101441.19;5079267;28;20049;-67
2021/12/10 08:03:09;;;;;;;15.82;7.93;;;;;;;19.25;67.77;101453.50;5063894;28;20399;-66
2021/12/10 08:05:37;;;;;;;25.77;9.48;;;;;;;19.11;64.67;101447.38;5066158;28;20055;-67
2021/12/10 08:08:06;;;;;;;18.70;10.25;;;;;;;18.85;64.84;101454.72;5068546;28;20111;-66
2021/12/10 08:10:35;;;;;;;23.08;11.35;;;;;;;18.71;64.50;101454.81;5068320;28;20119;-67
2021/12/10 08:13:05;;;;;;;22.92;11.10;;;;;;;18.61;64.21;101451.34;5067915;28;20136;-67
2021/12/10 08:15:33;;;;;;;32.10;11.73;;;;;;;18.61;64.68;101461.16;5068450;28;20037;-67
2021/12/10 08:18:01;;;;;;;25.77;10.25;;;;;;;18.54;63.01;101460.25;5066634;28;20041;-67
2021/12/10 08:20:29;;;;;;;18.38;10.50;;;;;;;18.58;63.71;101453.13;5066279;28;20476;-67
2021/12/10 08:22:57;;;;;;;26.55;10.60;;;;;;;18.60;61.65;101446.00;5068468;28;20381;-67
2021/12/10 08:25:27;;;;;;;19.35;7.10;;;;;;;18.76;61.01;101444.13;5067375;28;20134;-66
2021/12/10 08:27:57;;;;;;;22.05;8.85;;;;;;;18.79;60.80;101473.50;5062954;28;20048;-66
2021/12/10 08:30:28;;;;;;;22.33;11.63;;;;;;;18.66;60.49;101443.28;5076912;28;20497;-67
2021/12/10 08:32:58;;;;;;;22.00;10.43;;;;;;;18.54;61.24;101446.00;5071101;28;20415;-67
2021/12/10 08:35:31;;;;;;;26.40;14.40;;;;;;;18.48;61.79;101451.38;5068408;28;20395;-66
2021/12/10 08:38:02;;;;;;;19.98;8.73;;;;;;;18.40;62.12;101447.84;5068076;28;20500;-67
2021/12/10 08:40:33;;;;;;;27.67;11.25;;;;;;;18.53;61.33;101465.59;5068453;28;20097;-68
2021/12/10 08:43:01;;;;;;;33.45;17.02;;;;;;;18.55;62.30;101453.13;5085967;28;20056;-67
2021/12/10 08:45:31;;;;;;;25.60;12.07;;;;;;;18.62;62.64;101430.84;5069758;28;20492;-67
2021/12/10 08:47:59;;;;;;;27.73;13.20;;;;;;;18.69;62.71;101443.28;5068512;28;20048;-68
2021/12/10 08:50:30;;;;;;;27.20;9.25;;;;;;;18.83;63.01;101445.84;5070356;28;20069;-67
2021/12/10 08:53:01;;;;;;;22.80;10.55;;;;;;;18.84;62.31;101416.38;5071420;28;20423;-67
2021/12/10 08:55:31;;;;;;;24.20;10.25;;;;;;;18.76;62.26;101433.41;5070400;28;20048;-67
2021/12/10 08:57:59;;;;;;;29.55;7.53;;;;;;;18.73;62.70;101428.06;5070709;28;20399;-67
2021/12/10 09:00:27;;;;;;;24.52;10.57;;;;;;;18.82;61.56;101436.94;5072345;28;20039;-66
2021/12/10 09:02:58;;;;;;;28.63;12.35;;;;;;;18.86;60.93;101425.28;5072070;28;20045;-66
2021/12/10 09:05:28;;;;;;;24.75;8.52;;;;;;;19.09;62.19;101428.69;5081373;28;20043;-67
2021/12/10 09:07:55;;;;;;;22.15;8.68;;;;;;;19.36;60.10;101418.63;5090397;28;20086;-67
2021/12/10 09:10:27;;;;;;;16.38;5.35;;;;;;;19.64;61.03;101414.75;5090194;28;20101;-67
2021/12/10 09:12:55;;;;;;;17.60;5.43;;;;;;;19.88;56.83;101398.41;5089956;28;20377;-67
2021/12/10 09:15:25;;;;;;;15.48;4.97;;;;;;;19.90;55.46;101401.94;5077909;28;20049;-67
2021/12/10 09:17:58;;;;;;;17.67;5.78;;;;;;;19.97;55.25;101396.50;5076169;28;20056;-67
2021/12/10 09:20:31;;;;;;;17.70;7.63;;;;;;;19.92;54.79;101393.91;5072008;28;20109;-67
2021/12/10 09:22:59;;;;;;;24.83;9.73;;;;;;;20.13;56.21;101392.72;5090648;28;20442;-68
2021/12/10 09:25:27;;;;;;;29.77;11.05;;;;;;;20.21;55.54;101386.38;5091998;28;20047;-68
2021/12/10 09:27:56;;;;;;;24.55;9.88;;;;;;;20.35;55.95;101396.91;5091539;28;20403;-67
2021/12/10 09:30:26;;;;;;;10.65;3.08;;;;;;;20.53;54.64;101380.56;5075316;28;20401;-67
2021/12/10 09:32:55;;;;;;;19.77;5.07;;;;;;;20.62;54.55;101366.97;5091140;28;20040;-68
2021/12/10 09:35:26;;;;;;;18.52;3.60;;;;;;;20.36;53.32;101377.22;5091364;28;20040;-67
2021/12/10 09:37:55;;;;;;;10.07;1.90;;;;;;;20.16;52.50;101395.34;5091431;28;20059;-67
2021/12/10 09:40:27;;;;;;;10.38;2.03;;;;;;;20.07;52.38;101377.63;5091715;28;20097;-67
2021/12/10 09:42:56;;;;;;;15.07;7.20;;;;;;;19.88;52.94;101379.66;5091100;28;20407;-68
2021/12/10 09:45:26;;;;;;;18.13;7.07;;;;;;;19.88;53.48;101381.44;5091336;28;20046;-67
2021/12/10 09:47:54;;;;;;;24.02;10.13;;;;;;;20.05;53.46;101387.47;5090181;28;20040;-67
2021/12/10 09:50:25;;;;;;;24.25;7.55;;;;;;;20.16;53.31;101395.34;5089966;28;20043;-68
2021/12/10 09:52:56;;;;;;;16.55;3.75;;;;;;;20.57;53.38;101384.06;5089984;28;20050;-67
2021/12/10 09:55:27;;;;;;;19.17;7.57;;;;;;;20.73;51.37;101374.00;5091275;28;20044;-67
2021/12/10 09:57:55;;;;;;;22.90;12.98;;;;;;;20.74;51.12;101375.75;5090913;28;20087;-67
2021/12/10 10:00:26;;;;;;;18.00;4.00;;;;;;;20.77;50.87;101381.94;5070552;28;20102;-67
2021/12/10 10:02:54;;;;;;;17.40;3.67;;;;;;;20.75;50.66;101383.75;5079188;28;20052;-67
2021/12/10 10:05:27;;;;;;;18.92;6.68;;;;;;;20.80;49.76;101365.81;5093899;28;20072;-68
2021/12/10 10:07:57;;;;;;;9.95;4.00;;;;;;;20.95;49.95;101394.16;5085818;28;20056;-67
2021/12/10 10:10:27;;;;;;;14.15;5.93;;;;;;;20.99;49.95;101386.06;5080372;28;20043;-68
2021/12/10 10:12:56;;;;;;;17.88;4.35;;;;;;;20.85;50.15;101373.78;5070236;28;20098;-68
2021/12/10 10:15:27;;;;;;;13.73;3.03;;;;;;;20.72;50.22;101399.03;5086284;28;20032;-67
2021/12/10 10:17:56;;;;;;;22.30;5.65;;;;;;;20.77;49.90;101370.31;5085449;28;20131;-68
2021/12/10 10:20:24;;;;;;;26.40;4.63;;;;;;;20.59;50.38;101377.78;5070632;28;20037;-68
2021/12/10 10:22:52;;;;;;;21.85;3.65;;;;;;;20.43;50.72;101380.69;5069077;28;20040;-67
2021/12/10 10:25:25;;;;;;;26.55;3.65;;;;;;;20.49;50.71;101368.09;5069225;28;20037;-67
2021/12/10 10:27:54;;;;;;;13.35;2.30;;;;;;;20.67;49.73;101361.56;5089520;28;20059;-68
2021/12/10 10:30:27;;;;;;;14.65;2.10;;;;;;;20.62;50.12;101366.09;5087926;28;20044;-68
2021/12/10 10:32:57;;;;;;;13.03;3.10;;;;;;;20.62;50.36;101350.88;5090091;28;20559;-67
2021/12/10 10:35:29;;;;;;;17.25;3.63;;;;;;;20.63;50.68;101346.41;5088468;28;20568;-67
2021/12/10 10:37:58;;;;;;;18.50;3.30;;;;;;;20.74;51.00;101338.19;5085963;28;20085;-68
2021/12/10 10:40:36;;;;;;;14.88;5.57;;;;;;;20.90;50.77;101324.47;5087715;28;20039;-68
2021/12/10 10:43:05;;;;;;;15.43;5.38;;;;;;;21.13;50.62;101328.53;5088014;28;20069;-68
2021/12/10 10:45:35;;;;;;;20.00;7.35;;;;;;;21.27;50.06;101339.91;5088318;28;20036;-67
2021/12/10 10:48:06;;;;;;;19.58;10.25;;;;;;;21.20;49.44;101335.59;5082530;28;20036;-67
2021/12/10 10:50:37;;;;;;;18.25;7.18;;;;;;;21.13;49.30;101337.50;5087472;28;20036;-67
2021/12/10 10:53:09;;;;;;;21.38;6.47;;;;;;;21.05;49.98;101324.19;5088371;28;20127;-68
2021/12/10 10:55:41;;;;;;;16.27;7.03;;;;;;;21.10;50.59;101326.78;5087234;28;20120;-68
2021/12/10 10:58:12;;;;;;;17.10;3.17;;;;;;;21.04;50.43;101316.16;5087686;28;20123;-67
2021/12/10 11:00:46;;;;;;;18.50;2.45;;;;;;;21.03;50.42;101331.38;5088722;28;20115;-68
2021/12/10 11:03:16;;;;;;;21.92;6.53;;;;;;;21.15;50.82;101332.06;5088322;28;20055;-68
2021/12/10 11:05:48;;;;;;;24.60;7.13;;;;;;;21.14;50.68;101327.59;5089875;28;20043;-67
2021/12/10 11:08:28;;;;;;;22.35;5.57;;;;;;;20.98;50.60;101325.22;5089076;28;20128;-67
2021/12/10 11:11:08;;;;;;;22.92;6.50;;;;;;;21.13;51.85;101318.69;5076672;28;20150;-68
2021/12/10 11:13:36;;;;;;;26.33;7.93;;;;;;;21.28;51.84;101320.22;5073133;28;20075;-68
2021/12/10 11:16:06;;;;;;;24.20;8.20;;;;;;;21.36;50.87;101316.47;5084600;28;20048;-68
2021/12/10 11:18:49;;;;;;;19.83;4.90;;;;;;;21.29;50.11;101308.56;5079471;28;20311;-68
2021/12/10 11:21:19;;;;;;;20.52;2.95;;;;;;;20.85;50.30;101301.31;5085780;28;20047;-67
2021/12/10 11:23:47;;;;;;;22.40;3.45;;;;;;;20.56;51.19;101301.81;5072904;28;20044;-67
2021/12/10 11:26:16;;;;;;;14.13;3.13;;;;;;;20.49;52.18;101290.28;5088012;28;20051;-67
2021/12/10 11:28:44;;;;;;;17.65;2.83;;;;;;;20.61;51.74;101292.75;5089510;28;20534;-67
2021/12/10 11:31:14;;;;;;;25.58;8.35;;;;;;;20.82;51.66;101285.25;5085425;28;20119;-68
2021/12/10 11:33:48;;;;;;;19.25;6.60;;;;;;;20.94;51.08;101298.44;5074460;28;20071;-67
2021/12/10 11:36:17;;;;;;;;;;;;;;;20.96;50.01;101299.31;5100155;28;20705;-67